createdAt,value
2022-10-17T00:01:06.164Z,27.50
2022-10-17T00:03:35.819Z,27.50
2022-10-17T00:06:15.279Z,27.40
2022-10-17T00:08:44.275Z,27.40
2022-10-17T00:11:19.892Z,27.40
2022-10-17T00:13:49.873Z,27.40
2022-10-17T00:16:26.119Z,27.40
2022-10-17T00:18:54.057Z,27.40
2022-10-17T00:21:22.436Z,27.40
2022-10-17T00:23:49.931Z,27.30
2022-10-17T00:26:17.839Z,27.40
2022-10-17T00:28:53.083Z,27.30
2022-10-17T00:31:23.826Z,27.30
2022-10-17T00:33:53.214Z,27.30
2022-10-17T00:36:25.184Z,27.30
2022-10-17T00:38:59.447Z,27.30
2022-10-17T00:41:33.519Z,27.20
2022-10-17T00:44:27.209Z,27.30
2022-10-17T00:46:59.184Z,27.20
2022-10-17T00:49:30.721Z,27.20
2022-10-17T00:52:08.132Z,27.20
2022-10-17T00:54:43.529Z,27.20
2022-10-17T00:57:12.332Z,27.20
2022-10-17T00:59:43.026Z,27.20
2022-10-17T01:02:15.119Z,27.20
2022-10-17T01:04:46.659Z,27.10
2022-10-17T01:07:14.453Z,27.20
2022-10-17T01:09:43.820Z,27.10
2022-10-17T01:12:21.745Z,27.10
2022-10-17T01:14:59.106Z,27.10
2022-10-17T01:18:18.804Z,27.10
2022-10-17T01:21:10.620Z,27.10
2022-10-17T01:23:52.878Z,27.10
2022-10-17T01:26:50.915Z,27.10
2022-10-17T01:29:42.980Z,27.00
2022-10-17T01:32:31.115Z,27.10
2022-10-17T01:35:12.535Z,27.00
2022-10-17T01:38:19.058Z,27.00
2022-10-17T01:40:52.674Z,27.00
2022-10-17T01:43:40.479Z,27.00
2022-10-17T01:46:24.419Z,27.00
2022-10-17T01:48:54.078Z,27.00
2022-10-17T01:51:30.370Z,26.90
2022-10-17T01:54:23.660Z,27.00
2022-10-17T01:56:58.284Z,26.90
2022-10-17T01:59:39.452Z,26.90
2022-10-17T02:02:08.260Z,26.90
2022-10-17T02:04:36.606Z,26.90
2022-10-17T02:07:13.745Z,26.90
2022-10-17T02:09:41.295Z,26.80
2022-10-17T02:13:16.688Z,26.80
2022-10-17T02:15:49.724Z,26.80
2022-10-17T02:18:27.732Z,26.80
2022-10-17T02:21:13.243Z,26.80
2022-10-17T02:24:03.061Z,26.70
2022-10-17T02:27:18.027Z,26.70
2022-10-17T02:29:57.130Z,26.70
2022-10-17T02:32:36.762Z,26.70
2022-10-17T02:35:09.745Z,26.70
2022-10-17T02:37:38.808Z,26.70
2022-10-17T02:40:09.672Z,26.70
2022-10-17T02:42:40.690Z,26.60
2022-10-17T02:45:09.542Z,26.60
2022-10-17T02:48:03.531Z,26.60
2022-10-17T02:50:47.743Z,26.60
2022-10-17T02:53:25.916Z,26.60
2022-10-17T02:56:03.144Z,26.60
2022-10-17T02:58:35.824Z,26.60
2022-10-17T03:01:04.794Z,26.50
2022-10-17T03:03:33.346Z,26.60
2022-10-17T03:06:02.685Z,26.50
2022-10-17T03:08:30.098Z,26.50
2022-10-17T03:10:57.587Z,26.50
2022-10-17T03:13:27.651Z,26.50
2022-10-17T03:15:57.753Z,26.50
2022-10-17T03:18:25.427Z,26.50
2022-10-17T03:20:57.889Z,26.50
2022-10-17T03:23:25.424Z,26.50
2022-10-17T03:25:53.961Z,26.40
2022-10-17T03:28:21.693Z,26.40
2022-10-17T03:30:49.461Z,26.40
2022-10-17T03:33:17.033Z,26.40
2022-10-17T03:35:44.487Z,26.40
2022-10-17T03:38:12.122Z,26.40
2022-10-17T03:40:39.764Z,26.40
2022-10-17T03:43:07.481Z,26.40
2022-10-17T03:45:35.158Z,26.40
2022-10-17T03:48:02.830Z,26.30
2022-10-17T03:50:31.087Z,26.40
2022-10-17T03:53:00.498Z,26.30
2022-10-17T03:55:28.177Z,26.30
2022-10-17T03:57:55.725Z,26.30
2022-10-17T04:00:24.111Z,26.30
2022-10-17T04:02:58.262Z,26.30
2022-10-17T04:05:27.017Z,26.30
2022-10-17T04:07:54.475Z,26.30
2022-10-17T04:10:31.238Z,26.30
2022-10-17T04:12:58.949Z,26.20
2022-10-17T04:15:26.378Z,26.20
2022-10-17T04:17:54.530Z,26.20
2022-10-17T04:20:22.546Z,26.20
2022-10-17T04:22:50.414Z,26.20
2022-10-17T04:25:19.087Z,26.20
2022-10-17T04:27:49.199Z,26.20
2022-10-17T04:30:17.320Z,26.20
2022-10-17T04:32:45.491Z,26.20
2022-10-17T04:35:21.622Z,26.20
2022-10-17T04:37:55.293Z,26.20
2022-10-17T04:40:22.982Z,26.20
2022-10-17T04:42:53.468Z,26.20
2022-10-17T04:45:25.481Z,26.20
2022-10-17T04:47:58.234Z,26.20
2022-10-17T04:50:25.732Z,26.10
2022-10-17T04:53:12.929Z,26.10
2022-10-17T04:55:40.337Z,26.10
2022-10-17T04:58:08.199Z,26.10
2022-10-17T05:00:36.722Z,26.10
2022-10-17T05:03:22.830Z,26.10
2022-10-17T05:05:50.676Z,26.10
2022-10-17T05:08:18.598Z,26.10
2022-10-17T05:10:48.960Z,26.10
2022-10-17T05:13:16.551Z,26.10
2022-10-17T05:15:43.924Z,26.00
2022-10-17T05:18:12.984Z,26.00
2022-10-17T05:20:42.089Z,26.00
2022-10-17T05:23:09.664Z,26.00
2022-10-17T05:25:41.235Z,26.00
2022-10-17T05:28:08.770Z,26.00
2022-10-17T05:30:40.935Z,26.00
2022-10-17T05:33:09.765Z,26.00
2022-10-17T05:35:37.458Z,26.00
2022-10-17T05:38:06.307Z,26.00
2022-10-17T05:40:35.435Z,25.90
2022-10-17T05:43:04.039Z,26.00
2022-10-17T05:45:31.671Z,25.90
2022-10-17T05:47:59.617Z,25.90
2022-10-17T05:50:27.179Z,25.90
2022-10-17T05:53:05.499Z,25.90
2022-10-17T05:55:38.514Z,25.90
2022-10-17T05:58:06.305Z,25.90
2022-10-17T06:00:38.255Z,25.90
2022-10-17T06:03:05.918Z,25.90
2022-10-17T06:05:35.863Z,25.90
2022-10-17T06:08:03.432Z,25.90
2022-10-17T06:10:35.075Z,25.90
2022-10-17T06:13:02.860Z,25.90
2022-10-17T06:15:30.497Z,25.90
2022-10-17T06:18:05.930Z,25.90
2022-10-17T06:20:33.480Z,25.80
2022-10-17T06:23:01.446Z,25.90
2022-10-17T06:25:48.830Z,25.80
2022-10-17T06:28:16.252Z,25.80
2022-10-17T06:30:43.853Z,25.80
2022-10-17T06:33:11.917Z,25.80
2022-10-17T06:35:39.475Z,25.80
2022-10-17T06:38:07.073Z,25.80
2022-10-17T06:40:36.814Z,25.80
2022-10-17T06:43:04.160Z,25.80
2022-10-17T06:45:54.018Z,25.80
2022-10-17T06:48:31.724Z,25.80
2022-10-17T06:51:28.516Z,25.80
2022-10-17T06:53:59.521Z,25.80
2022-10-17T06:56:56.490Z,25.80
2022-10-17T06:59:52.177Z,25.70
2022-10-17T07:02:29.271Z,25.70
2022-10-17T07:04:59.281Z,25.70
2022-10-17T07:07:26.944Z,25.70
2022-10-17T07:09:54.744Z,25.70
2022-10-17T07:12:24.428Z,25.70
2022-10-17T07:14:52.159Z,25.70
2022-10-17T07:17:20.205Z,25.70
2022-10-17T07:19:48.804Z,25.70
2022-10-17T07:22:17.207Z,25.70
2022-10-17T07:24:47.749Z,25.70
2022-10-17T07:27:20.991Z,25.70
2022-10-17T07:29:48.735Z,25.70
2022-10-17T07:32:21.654Z,25.70
2022-10-17T07:34:49.230Z,25.70
2022-10-17T07:37:16.821Z,25.70
2022-10-17T07:39:50.526Z,25.70
2022-10-17T07:42:18.059Z,25.70
2022-10-17T07:44:47.691Z,25.70
2022-10-17T07:47:15.534Z,25.70
2022-10-17T07:49:45.506Z,25.70
2022-10-17T07:52:14.074Z,25.70
2022-10-17T07:54:41.497Z,25.70
2022-10-17T07:57:09.573Z,25.70
2022-10-17T07:59:38.661Z,25.70
2022-10-17T08:02:08.288Z,25.70
2022-10-17T08:04:36.599Z,25.70
2022-10-17T08:07:19.097Z,25.70
2022-10-17T08:09:49.828Z,25.60
2022-10-17T08:12:17.503Z,25.70
2022-10-17T08:14:45.194Z,25.70
2022-10-17T08:17:12.711Z,25.70
2022-10-17T08:19:40.681Z,25.60
2022-10-17T08:22:08.709Z,25.60
2022-10-17T08:24:36.509Z,25.70
2022-10-17T08:27:09.229Z,25.70
2022-10-17T08:29:36.781Z,25.70
2022-10-17T08:32:07.627Z,25.70
2022-10-17T08:34:36.400Z,25.70
2022-10-17T08:37:04.128Z,25.70
2022-10-17T08:39:31.534Z,25.70
2022-10-17T08:42:04.616Z,25.70
2022-10-17T08:45:11.563Z,25.70
2022-10-17T08:47:43.734Z,25.70
2022-10-17T08:50:37.768Z,25.70
2022-10-17T08:53:20.791Z,25.70
2022-10-17T08:55:51.417Z,25.70
2022-10-17T08:58:29.470Z,25.70
2022-10-17T09:01:38.504Z,25.70
2022-10-17T09:04:53.269Z,25.70
2022-10-17T09:07:52.916Z,25.70
2022-10-17T09:10:56.243Z,25.70
2022-10-17T09:14:18.252Z,25.70
2022-10-17T09:17:13.594Z,25.70
2022-10-17T09:20:01.798Z,25.70
2022-10-17T09:22:38.319Z,25.70
2022-10-17T09:25:14.136Z,25.70
2022-10-17T09:27:48.237Z,25.70
2022-10-17T09:30:46.385Z,25.70
2022-10-17T09:33:35.555Z,25.70
2022-10-17T09:36:36.525Z,25.70
2022-10-17T09:39:13.754Z,25.70
2022-10-17T09:41:51.070Z,25.70
2022-10-17T09:44:30.781Z,25.70
2022-10-17T09:47:23.434Z,25.70
2022-10-17T09:49:51.921Z,25.70
2022-10-17T09:52:30.088Z,25.70
2022-10-17T09:55:06.965Z,25.70
2022-10-17T09:58:02.678Z,25.70
2022-10-17T10:00:34.100Z,25.80
2022-10-17T10:03:27.788Z,25.80
2022-10-17T10:06:05.774Z,25.70
2022-10-17T10:08:59.403Z,25.80
2022-10-17T10:11:51.469Z,25.80
2022-10-17T10:14:35.046Z,25.80
2022-10-17T10:17:05.982Z,25.80
2022-10-17T10:19:37.062Z,25.80
2022-10-17T10:22:18.819Z,25.80
2022-10-17T10:24:46.584Z,25.80
2022-10-17T10:27:18.798Z,25.80
2022-10-17T10:29:53.810Z,25.80
2022-10-17T10:32:32.106Z,25.80
2022-10-17T10:35:02.914Z,25.80
2022-10-17T10:37:45.722Z,25.80
2022-10-17T10:40:29.579Z,25.80
2022-10-17T10:43:05.086Z,25.80
2022-10-17T10:45:48.332Z,25.80
2022-10-17T10:48:35.599Z,25.80
2022-10-17T10:51:14.462Z,25.80
2022-10-17T10:54:13.472Z,25.80
2022-10-17T10:56:53.381Z,25.80
2022-10-17T10:59:46.294Z,25.80
2022-10-17T11:02:34.420Z,25.80
2022-10-17T11:05:30.897Z,25.80
2022-10-17T11:08:26.281Z,25.80
2022-10-17T11:11:26.755Z,25.80
2022-10-17T11:14:46.431Z,25.80
2022-10-17T11:17:42.593Z,25.80
2022-10-17T11:20:09.805Z,25.80
2022-10-17T11:22:49.076Z,25.80
2022-10-17T11:25:33.695Z,25.80
2022-10-17T11:28:05.119Z,25.80
2022-10-17T11:30:47.788Z,25.80
2022-10-17T11:33:46.361Z,25.90
2022-10-17T11:36:17.544Z,25.80
2022-10-17T11:39:10.225Z,25.90
2022-10-17T11:42:04.347Z,25.80
2022-10-17T11:44:41.286Z,25.80
2022-10-17T11:47:38.932Z,25.90
2022-10-17T11:53:33.832Z,25.80
2022-10-17T11:56:02.689Z,25.90
2022-10-17T11:59:18.428Z,25.90
2022-10-17T12:01:53.515Z,25.80
2022-10-17T12:05:17.190Z,25.90
2022-10-17T12:07:53.526Z,25.90
2022-10-17T12:10:29.056Z,25.90
2022-10-17T12:12:56.741Z,25.90
2022-10-17T12:15:24.176Z,25.90
2022-10-17T12:18:00.658Z,25.90
2022-10-17T12:20:37.130Z,25.80
2022-10-17T12:23:13.817Z,25.80
2022-10-17T12:26:05.226Z,25.90
2022-10-17T12:28:39.504Z,25.80
2022-10-17T12:31:16.252Z,25.80
2022-10-17T12:33:46.777Z,25.80
2022-10-17T12:36:34.188Z,25.80
2022-10-17T12:39:04.670Z,25.80
2022-10-17T12:41:52.446Z,25.80
2022-10-17T12:44:22.631Z,25.80
2022-10-17T12:47:05.900Z,25.90
2022-10-17T12:49:54.396Z,25.80
2022-10-17T12:52:35.300Z,25.80
2022-10-17T12:55:13.135Z,25.80
2022-10-17T12:58:10.694Z,25.80
2022-10-17T13:01:18.952Z,25.80
2022-10-17T13:03:49.392Z,25.80
2022-10-17T13:06:28.300Z,25.80
2022-10-17T13:09:04.125Z,25.80
2022-10-17T13:11:35.274Z,25.80
2022-10-17T13:14:11.413Z,25.80
2022-10-17T13:17:00.479Z,25.70
2022-10-17T13:19:40.557Z,25.60
2022-10-17T13:22:17.970Z,25.50
2022-10-17T13:24:46.516Z,25.40
2022-10-17T13:27:34.901Z,25.40
2022-10-17T13:30:29.337Z,25.40
2022-10-17T13:33:00.738Z,25.30
2022-10-17T13:35:55.322Z,25.20
2022-10-17T13:38:25.940Z,25.20
2022-10-17T13:41:01.779Z,25.20
2022-10-17T13:43:39.150Z,25.20
2022-10-17T13:46:32.396Z,25.20
2022-10-17T13:48:55.422Z,25.10
2022-10-17T13:51:24.603Z,25.10
2022-10-17T13:53:52.233Z,25.10
2022-10-17T13:56:29.233Z,25.10
2022-10-17T13:59:07.287Z,25.10
2022-10-17T14:01:35.363Z,25.10
2022-10-17T14:04:09.443Z,25.00
2022-10-17T14:06:49.312Z,25.10
2022-10-17T14:09:27.650Z,25.00
2022-10-17T14:12:13.987Z,25.00
2022-10-17T14:15:09.146Z,25.00
2022-10-17T15:14:50.836Z,25.40
2022-10-17T15:17:31.228Z,25.40
2022-10-17T15:19:59.175Z,25.40
2022-10-17T15:22:26.963Z,25.40
2022-10-17T15:24:54.611Z,25.40
2022-10-17T15:27:24.534Z,25.40
2022-10-17T15:29:53.229Z,25.30
2022-10-17T15:32:20.742Z,25.40
2022-10-17T15:34:48.319Z,25.40
2022-10-17T15:37:23.671Z,25.40
2022-10-17T15:39:54.902Z,25.40
2022-10-17T15:42:30.638Z,25.40
2022-10-17T15:44:58.803Z,25.40
2022-10-17T15:47:35.553Z,25.40
2022-10-17T15:50:05.042Z,25.40
2022-10-17T15:52:32.759Z,25.40
2022-10-17T15:55:04.148Z,25.40
2022-10-17T15:57:39.458Z,25.40
2022-10-17T16:00:16.859Z,25.40
2022-10-17T16:02:44.774Z,25.40
2022-10-17T16:05:23.651Z,25.40
2022-10-17T16:07:51.684Z,25.40
2022-10-17T16:10:23.226Z,25.40
2022-10-17T16:12:50.947Z,25.40
2022-10-17T16:15:25.045Z,25.40
2022-10-17T16:17:55.029Z,25.40
2022-10-17T16:20:24.725Z,25.40
2022-10-17T16:22:54.713Z,25.40
2022-10-17T16:25:25.229Z,25.40
2022-10-17T16:27:55.784Z,25.40
2022-10-17T16:30:25.932Z,25.40
2022-10-17T16:32:54.710Z,25.40
2022-10-17T16:35:31.857Z,25.40
2022-10-17T16:38:02.620Z,25.40
2022-10-17T16:40:30.302Z,25.40
2022-10-17T16:42:57.928Z,25.40
2022-10-17T16:45:25.343Z,25.40
2022-10-17T16:47:53.450Z,25.40
2022-10-17T16:50:21.158Z,25.40
2022-10-17T16:52:48.669Z,25.40
2022-10-17T16:55:19.056Z,25.40
2022-10-17T16:57:49.060Z,25.40
2022-10-17T17:00:17.868Z,25.40
2022-10-17T17:02:48.831Z,25.40
2022-10-17T17:05:16.608Z,25.40
2022-10-17T17:07:44.281Z,25.40
2022-10-17T17:10:11.901Z,25.50
2022-10-17T17:12:39.323Z,25.40
2022-10-17T17:15:07.359Z,25.40
2022-10-17T17:17:49.707Z,25.50
2022-10-17T17:20:19.927Z,25.50
2022-10-17T17:22:47.429Z,25.50
2022-10-17T17:25:15.097Z,25.40
2022-10-17T17:27:42.637Z,25.50
2022-10-17T17:30:10.687Z,25.40
2022-10-17T17:32:40.599Z,25.50
2022-10-17T17:35:09.684Z,25.50
2022-10-17T17:37:37.331Z,25.40
2022-10-17T17:40:06.330Z,25.50
2022-10-17T17:42:33.923Z,25.50
2022-10-17T17:45:01.554Z,25.50
2022-10-17T17:47:29.949Z,25.40
2022-10-17T17:49:57.615Z,25.40
2022-10-17T17:52:25.097Z,25.50
2022-10-17T17:54:54.974Z,25.40
2022-10-17T17:57:22.372Z,25.50
2022-10-17T17:59:50.377Z,25.50
2022-10-17T18:02:18.143Z,25.50
2022-10-17T18:04:45.682Z,25.50
2022-10-17T18:07:13.171Z,25.50
2022-10-17T18:09:40.639Z,25.40
2022-10-17T18:12:08.252Z,25.50
2022-10-17T18:14:35.614Z,25.50
2022-10-17T18:17:03.028Z,25.50
2022-10-17T18:19:30.614Z,25.50
2022-10-17T18:21:58.828Z,25.40
2022-10-17T18:24:26.424Z,25.40
2022-10-17T18:26:59.019Z,25.50
2022-10-17T18:29:29.652Z,25.50
2022-10-17T18:31:57.206Z,25.50
2022-10-17T18:34:24.786Z,25.40
2022-10-17T18:36:53.134Z,25.50
2022-10-17T18:39:21.174Z,25.40
2022-10-17T18:41:48.819Z,25.40
2022-10-17T18:44:17.069Z,25.40
2022-10-17T18:49:19.089Z,25.40
2022-10-17T18:51:46.970Z,25.40
2022-10-17T18:54:20.765Z,25.40
2022-10-17T18:56:51.283Z,25.40
2022-10-17T18:59:20.271Z,25.40
2022-10-17T19:01:48.191Z,25.40
2022-10-17T19:04:16.470Z,25.40
2022-10-17T19:06:44.403Z,25.40
2022-10-17T19:09:14.264Z,25.40
2022-10-17T19:11:43.118Z,25.40
2022-10-17T19:14:15.611Z,25.40
2022-10-17T19:16:48.850Z,25.40
2022-10-17T19:19:20.775Z,25.40
2022-10-17T19:21:49.126Z,25.40
2022-10-17T19:24:24.438Z,25.40
2022-10-17T19:26:55.325Z,25.40
2022-10-17T19:29:27.083Z,25.40
2022-10-17T19:34:28.027Z,25.40
2022-10-17T19:36:56.087Z,25.40
2022-10-17T19:39:25.362Z,25.40
2022-10-17T19:41:53.192Z,25.40
2022-10-17T19:44:20.663Z,25.40
2022-10-17T19:46:49.617Z,25.40
2022-10-17T19:49:17.924Z,25.40
2022-10-17T19:51:45.801Z,25.40
2022-10-17T19:54:15.339Z,25.40
2022-10-17T19:56:43.693Z,25.40
2022-10-17T19:59:14.581Z,25.40
2022-10-17T20:01:42.528Z,25.40
2022-10-17T20:04:11.571Z,25.40
2022-10-17T20:06:40.782Z,25.40
2022-10-17T20:09:12.353Z,25.40
2022-10-17T20:11:43.384Z,25.40
2022-10-17T20:14:10.648Z,25.40
2022-10-17T20:16:38.319Z,25.40
2022-10-17T20:19:09.667Z,25.40
2022-10-17T20:21:39.766Z,25.40
2022-10-17T20:24:13.913Z,25.40
2022-10-17T20:26:41.799Z,25.40
2022-10-17T20:29:16.039Z,25.40
2022-10-17T20:31:46.357Z,25.40
2022-10-17T20:34:17.447Z,25.40
2022-10-17T20:36:45.059Z,25.40
2022-10-17T20:39:14.947Z,25.40
2022-10-17T20:41:42.846Z,25.40
2022-10-17T20:44:11.240Z,25.40
2022-10-17T20:46:48.448Z,25.30
2022-10-17T20:49:25.385Z,25.30
2022-10-17T20:51:52.882Z,25.30
2022-10-17T20:54:22.239Z,25.30
2022-10-17T20:56:49.849Z,25.30
2022-10-17T20:59:18.523Z,25.30
2022-10-17T21:01:46.831Z,25.30
2022-10-17T21:04:44.640Z,25.20
2022-10-17T21:07:02.372Z,25.30
2022-10-17T21:09:29.897Z,25.30
2022-10-17T21:11:57.399Z,25.20
2022-10-17T21:14:25.678Z,25.20
2022-10-17T21:16:53.196Z,25.20
2022-10-17T21:19:22.041Z,25.20
2022-10-17T21:21:49.682Z,25.20
2022-10-17T21:24:20.899Z,25.20
2022-10-17T21:26:55.369Z,25.20
2022-10-17T21:29:24.050Z,25.20
2022-10-17T21:31:52.914Z,25.20
2022-10-17T21:34:23.971Z,25.20
2022-10-17T21:36:52.224Z,25.20
2022-10-17T21:39:19.960Z,25.20
2022-10-17T21:41:47.418Z,25.20
2022-10-17T21:44:19.568Z,25.20
2022-10-17T21:46:48.269Z,25.20
2022-10-17T21:49:19.871Z,25.20
2022-10-17T21:51:48.389Z,25.20
2022-10-17T21:54:17.180Z,25.20
2022-10-17T21:56:45.316Z,25.20
2022-10-17T21:59:13.113Z,25.20
2022-10-17T22:01:45.008Z,25.20
2022-10-17T22:04:18.625Z,25.20
2022-10-17T22:06:51.383Z,25.20
2022-10-17T22:09:26.156Z,25.20
2022-10-17T22:11:56.660Z,25.20
2022-10-17T22:14:26.615Z,25.20
2022-10-17T22:16:54.203Z,25.20
2022-10-17T22:19:27.342Z,25.20
2022-10-17T22:21:55.463Z,25.20
2022-10-17T22:24:23.738Z,25.20
2022-10-17T22:26:52.088Z,25.10
2022-10-17T22:29:19.765Z,25.10
2022-10-17T22:31:47.497Z,25.10
2022-10-17T22:34:17.147Z,25.10
2022-10-17T22:36:45.211Z,25.10
2022-10-17T22:39:12.882Z,25.10
2022-10-17T22:41:40.781Z,25.10
2022-10-17T22:44:08.558Z,25.10
2022-10-17T22:46:36.535Z,25.10
2022-10-17T22:49:04.449Z,25.00
2022-10-17T22:51:32.283Z,25.10
2022-10-17T22:53:59.969Z,25.10
2022-10-17T22:56:27.460Z,25.00
2022-10-17T22:58:54.948Z,25.00
2022-10-17T23:01:25.705Z,25.00
2022-10-17T23:03:53.923Z,25.00
2022-10-17T23:06:22.474Z,25.00
2022-10-17T23:08:50.018Z,25.00
2022-10-17T23:11:18.300Z,25.00
2022-10-17T23:13:45.852Z,25.00
2022-10-17T23:16:13.468Z,25.00
2022-10-17T23:18:41.094Z,25.00
2022-10-17T23:21:08.880Z,25.00
2022-10-17T23:23:37.169Z,25.00
2022-10-17T23:26:15.195Z,25.00
2022-10-17T23:28:43.462Z,25.00
2022-10-17T23:31:20.623Z,25.00
2022-10-17T23:33:50.220Z,25.00
2022-10-17T23:36:20.874Z,25.00
2022-10-17T23:38:50.198Z,25.00
2022-10-17T23:41:18.552Z,25.00
2022-10-17T23:43:46.075Z,25.00
2022-10-17T23:46:13.972Z,25.00
2022-10-17T23:48:42.028Z,25.00
2022-10-17T23:51:10.753Z,24.90
2022-10-17T23:53:39.279Z,24.90
2022-10-17T23:56:08.042Z,24.90
2022-10-17T23:58:36.656Z,25.00
